Newark, NJ

6:45 PM EDT on September 21, 2014 (GMT -0400)
Near Red Bull Arena | Change Station
CLOSE
Current Station
Personal Weather Station
Location: Harrison, NJ
Elevation: 23 ft
Nearby Weather Stations

Elev 23 ft 40.74 °N, 74.15 °W | Updated 4 minutes ago

Mostly Cloudy
Mostly Cloudy
74.6 °F
Feels Like 75 °F
N
0.0
Wind Variable Wind from ENE
Gusts 2.0 mph

Today
High -- | Low -- °F
--% Chance of Precip.
Yesterday
High -- | Low -- °F
Precip. -- in
6:43 AM 6:55 PM
Waning Crescent, 5% visible
Pressure 29.62 in
Visibility 10.0 miles
Clouds Few 2500 ft
Scattered Clouds 15000 ft
Mostly Cloudy 22000 ft
Heat Index 75 °F
Dew Point 68 °F
Humidity 79%
Rainfall 0.09 in
Snow Depth Not available.
UV 0 out of 12
Pollen 2.60 out of 12
Air Quality Not available.
Flu Activity Not available.
METAR KEWR 212151Z 19003KT 10SM FEW025 SCT150 BKN220 24/19 A2962 RMK AO2 SLP031 T02390189

More Conditions Fewer Conditions

Pressure 29.62 in
Visibility 10.0 miles
Clouds Few 2500 ft
Scattered Clouds 15000 ft
Mostly Cloudy 22000 ft
Heat Index 75 °F
Dew Point 68 °F
Humidity 79%
Rainfall 0.09 in
Snow Depth Not available.
UV 0 out of 12
Pollen 2.60 out of 12
Air Quality Not available.
Flu Activity Not available.
METAR KEWR 212151Z 19003KT 10SM FEW025 SCT150 BKN220 24/19 A2962 RMK AO2 SLP031 T02390189

More Conditions Fewer Conditions

10-Day Weather Forecast

Almanac

Astronomy

Sep. 21, 2014 Rise Set
Actual Time 6:43 AM EDT 6:55 PM EDT
Civil Twilight 6:15 AM EDT 7:22 PM EDT
Nautical Twilight 5:43 AM EDT 7:54 PM EDT
Astronomical Twilight 5:11 AM EDT 8:27 PM EDT
Moon 4:13 AM EDT 5:30 PM EDT
Length of Visible Light 13h 07m
Length of Day
12h 12m
Tomorrow will be 2m 41s shorter.
Waning Crescent, 5% of the Moon is Illuminated
Today
Waning Crescent
Sep 24
New
Oct 1
First Quarter
Oct 8
Full
Oct 15
Last Quarter

Today's Extremes

State Highs State Lows

Community

WunderPhotos

Upload Photos

1,755,280 photos uploaded!

WunderBlogs® & News

Nearby

Snow Depth

Station Depth Elevation
No new snow has been reported.

Earthquake Activity

City Distance Mag. Time & Date
No recent earthquake activity has been reported nearby.
Minimum magnitude displayed is 2.5.

Coastal Water Temperatures

Place Temperature
Sandy Hook, NJ 70.0 °F
The Battery, NY 71.1 °F
Bergen Point West Reach, NJ 71.1 °F
Kings Point, NY 69.1 °F

Nearby Weather Stations